Flight Track Log - Related Links

Times and Time Zones

All times are in EDT time to prevent confusion due to time zone crossing. See the WJA304 flight status page for this flight to view local times or setup timezone preferences in your user account.

Time Position Orientation Groundspeed Altitude Reporting Facility
EDT Latitude Longitude Course Direction KTS MPH feet Rate Location/Type
Tue 09:43:35 PM 53.2333 -113.5333 107° East 180 207 4,100  Level Edmonton Center
Tue 09:44:35 PM 53.2000 -113.4833 138° Southeast 230 265 6,400 2,850 Climbing Edmonton Center
Tue 09:45:35 PM 53.2000 -113.3333 90° East 290 334 9,800 3,150 Climbing Edmonton Center
Tue 09:46:00 PM 53.2096 -112.8108 90° East  Level Estimated
Tue 09:46:35 PM 53.2000 -113.2000 90° East 330 380 12,700  Level Edmonton Center
Tue 09:47:00 PM 53.1838 -112.6191 90° East  Level Estimated
Tue 09:47:35 PM 53.2167 -113.0333 80° East 350 403 16,800  Level Edmonton Center
Tue 09:48:00 PM 53.1577 -112.4277 90° East  Level Estimated
Tue 09:48:35 PM 53.2333 -112.8833 79° East 370 426 20,300  Level Edmonton Center
Tue 09:49:00 PM 53.1313 -112.2365 107° East  Level Estimated
Tue 09:49:35 PM 53.2167 -112.6833 98° East 380 437 21,700  Level Edmonton Center
Tue 09:50:35 PM 53.2333 -112.5167 80° East 380 437 24,500 2,700 Climbing Edmonton Center
Tue 09:51:35 PM 53.2333 -112.3167 90° East 400 460 27,100 2,400 Climbing Edmonton Center
Tue 09:52:35 PM 53.2167 -112.1167 98° East 430 495 29,300 2,150 Climbing Edmonton Center
Tue 09:53:35 PM 53.1667 -111.9333 114° Southeast 440 506 31,400 2,150 Climbing Edmonton Center
Tue 09:54:35 PM 53.1333 -111.7333 105° East 450 518 33,600 2,200 Climbing Edmonton Center
Tue 09:55:35 PM 53.1000 -111.5333 105° East 450 518 35,800 2,100 Climbing Edmonton Center
Tue 09:56:35 PM 53.0500 -111.3333 113° Southeast 450 518 37,800 1,550 Climbing Edmonton Center
Tue 09:57:35 PM 53.0167 -111.1167 104° East 450 518 38,900 1,150 Climbing Edmonton Center
Tue 09:58:35 PM 52.9667 -110.9167 112° Southeast 450 518 40,100 1,050 Climbing Edmonton Center
Tue 09:59:35 PM 52.9333 -110.7167 105° East 450 518 41,000 450 Climbing Edmonton Center
Tue 10:00:35 PM 52.9000 -110.5167 105° East 450 518 41,000  Level Edmonton Center
Tue 10:01:35 PM 52.8667 -110.3167 105° East 450 518 41,000  Level Edmonton Center
Tue 10:02:35 PM 52.8333 -110.1167 105° East 450 518 41,000  Level Edmonton Center
Tue 10:03:27 PM 52.8000 -109.9667 110° East 460 529 41,000  Level Winnipeg Center
Tue 10:04:27 PM 52.7667 -109.7667 105° East 460 529 41,000  Level Winnipeg Center
Tue 10:05:27 PM 52.7167 -109.5833 114° Southeast 460 529 41,000  Level Winnipeg Center
Tue 10:06:27 PM 52.6833 -109.3500 103° East 460 529 41,000  Level Winnipeg Center
Tue 10:07:27 PM 52.6500 -109.1833 108° East 460 529 41,000  Level Winnipeg Center
Tue 10:08:28 PM 52.6167 -108.9667 104° East 460 529 41,000  Level Winnipeg Center
Tue 10:09:27 PM 52.5667 -108.7667 112° Southeast 460 529 41,000  Level Winnipeg Center
Tue 10:10:27 PM 52.5500 -108.5667 98° East 460 529 41,000  Level Winnipeg Center
Tue 10:11:27 PM 52.5000 -108.3500 111° Southeast 460 529 41,000  Level Winnipeg Center
Tue 10:12:27 PM 52.4667 -108.1833 108° East 460 529 41,000  Level Winnipeg Center
Tue 10:13:27 PM 52.4167 -107.9667 111° Southeast 460 529 41,000  Level Winnipeg Center
Tue 10:14:27 PM 52.3833 -107.7667 105° East 460 529 41,000  Level Winnipeg Center
Tue 10:15:27 PM 52.3333 -107.5667 112° Southeast 460 529 41,000  Level Winnipeg Center
Tue 10:16:27 PM 52.2833 -107.3667 112° Southeast 460 529 41,000  Level Winnipeg Center
Tue 10:17:27 PM 52.2500 -107.1667 105° East 470 541 41,000  Level Winnipeg Center
Tue 10:18:27 PM 52.2167 -106.9667 105° East 470 541 41,000  Level Winnipeg Center
Tue 10:19:27 PM 52.1667 -106.7833 114° Southeast 460 529 41,000  Level Winnipeg Center
Tue 10:20:27 PM 52.1333 -106.5833 105° East 450 518 41,000  Level Winnipeg Center
Tue 10:21:27 PM 52.1000 -106.3833 105° East 460 529 41,000  Level Winnipeg Center
Tue 10:22:27 PM 52.0500 -106.1500 109° East 470 541 41,000  Level Winnipeg Center
Tue 10:23:27 PM 52.0167 -105.9833 108° East 460 529 41,000  Level Winnipeg Center
Tue 10:24:27 PM 51.9833 -105.7500 103° East 460 529 41,000  Level Winnipeg Center
Tue 10:25:27 PM 51.9333 -105.5500 112° Southeast 460 529 41,000  Level Winnipeg Center
Tue 10:26:27 PM 51.8833 -105.3833 116° Southeast 470 541 41,000  Level Winnipeg Center
Tue 10:27:27 PM 51.8500 -105.1667 104° East 470 541 41,000  Level Winnipeg Center
Tue 10:28:27 PM 51.8167 -104.9667 105° East 470 541 41,000  Level Winnipeg Center
Tue 10:29:27 PM 51.7667 -104.7667 112° Southeast 470 541 41,000  Level Winnipeg Center
Tue 10:30:27 PM 51.7333 -104.5667 105° East 470 541 41,000  Level Winnipeg Center
Tue 10:31:27 PM 51.6667 -104.3667 118° Southeast 460 529 41,000  Level Winnipeg Center
Tue 10:32:27 PM 51.6333 -104.1667 105° East 460 529 41,000  Level Winnipeg Center
Tue 10:33:27 PM 51.6000 -103.9833 106° East 460 529 41,000  Level Winnipeg Center
Tue 10:34:27 PM 51.5500 -103.7833 112° Southeast 460 529 41,000  Level Winnipeg Center
Tue 10:35:27 PM 51.5000 -103.5833 112° Southeast 460 529 41,000  Level Winnipeg Center
Tue 10:36:27 PM 51.4667 -103.3833 105° East 460 529 41,000  Level Winnipeg Center
Tue 10:37:27 PM 51.4167 -103.2000 114° Southeast 470 541 41,000  Level Winnipeg Center
Tue 10:38:27 PM 51.3833 -103.0333 108° East 460 529 41,000  Level Winnipeg Center
Tue 10:39:27 PM 51.3167 -102.8000 114° Southeast 460 529 41,000  Level Winnipeg Center
Tue 10:40:27 PM 51.2833 -102.6167 106° East 470 541 41,000  Level Winnipeg Center
Tue 10:41:27 PM 51.2333 -102.4167 112° Southeast 470 541 41,000  Level Winnipeg Center
Tue 10:42:27 PM 51.2000 -102.2333 106° East 470 541 41,000  Level Winnipeg Center
Tue 10:43:27 PM 51.1667 -102.0167 104° East 470 541 41,000  Level Winnipeg Center
Tue 10:44:27 PM 51.1167 -101.8167 112° Southeast 460 529 41,000  Level Winnipeg Center
Tue 10:45:27 PM 51.0667 -101.6500 115° Southeast 460 529 41,000  Level Winnipeg Center
Tue 10:46:27 PM 51.0333 -101.4333 104° East 470 541 41,000  Level Winnipeg Center
Tue 10:47:27 PM 50.9833 -101.2500 113° Southeast 460 529 41,000  Level Winnipeg Center
Tue 10:48:27 PM 50.9500 -101.0500 105° East 460 529 41,000  Level Winnipeg Center
Tue 10:49:27 PM 50.9000 -100.8667 113° Southeast 460 529 41,000  Level Winnipeg Center
Tue 10:50:27 PM 50.8500 -100.6833 113° Southeast 470 541 41,000  Level Winnipeg Center
Tue 10:51:27 PM 50.8167 -100.4667 104° East 460 529 41,000  Level Winnipeg Center
Tue 10:52:27 PM 50.7667 -100.2667 112° Southeast 470 541 41,000  Level Winnipeg Center
Tue 10:53:27 PM 50.7167 -100.0833 113° Southeast 470 541 41,000 -900 Level Winnipeg Center
Tue 10:54:27 PM 50.6833 -99.9000 106° East 470 541 39,200 -2,200 Descending Winnipeg Center
Tue 10:55:27 PM 50.6333 -99.7167 113° Southeast 470 541 36,600 -2,650 Descending Winnipeg Center
Tue 10:56:27 PM 50.5833 -99.5000 110° East 460 529 33,900 -2,450 Descending Winnipeg Center
Tue 10:57:27 PM 50.5500 -99.3333 107° East 450 518 31,700 -2,200 Descending Winnipeg Center
Tue 10:58:27 PM 50.5167 -99.1500 106° East 430 495 29,500 -2,100 Descending Winnipeg Center
Tue 10:59:27 PM 50.4667 -98.9833 115° Southeast 420 483 27,500 -2,050 Descending Winnipeg Center
Tue 11:00:27 PM 50.4333 -98.8000 106° East 400 460 25,400 -1,950 Descending Winnipeg Center
Tue 11:01:27 PM 50.4000 -98.6667 111° Southeast 380 437 23,600 -1,800 Descending Winnipeg Center
Tue 11:02:27 PM 50.3667 -98.5167 109° East 370 426 21,800 -1,900 Descending Winnipeg Center
Tue 11:03:27 PM 50.3333 -98.3500 107° East 350 403 19,800 -1,850 Descending Winnipeg Center
Tue 11:04:27 PM 50.3000 -98.2167 111° Southeast 350 403 18,100 -1,750 Descending Winnipeg Center
Tue 11:05:27 PM 50.3000 -98.0667 90° East 340 391 16,300 -1,900 Descending Winnipeg Center
Tue 11:06:27 PM 50.2500 -97.9333 120° Southeast 330 380 14,300 -1,800 Descending Winnipeg Center
Tue 11:07:27 PM 50.1833 -97.8500 141° Southeast 330 380 12,700 -1,700 Descending Winnipeg Center
Tue 11:08:27 PM 50.1167 -97.7667 141° Southeast 320 368 10,900 -1,600 Descending Winnipeg Center
Tue 11:09:27 PM 50.0500 -97.7000 147° Southeast 310 357 9,500 -1,550 Descending Winnipeg Center
Tue 11:10:27 PM 49.9833 -97.6167 141° Southeast 290 334 7,800 -1,550 Descending Winnipeg Center
Tue 11:11:27 PM 49.9167 -97.5333 141° Southeast 280 322 6,400 -1,150 Descending Winnipeg Center
Tue 11:12:27 PM 49.8500 -97.4667 147° Southeast 270 311 5,500 -750 Descending Winnipeg Center
Tue 11:13:27 PM 49.8167 -97.4000 128° Southeast 230 265 4,900 -900 Descending Winnipeg Center
Tue 11:14:27 PM 49.7667 -97.3333 139° Southeast 220 253 3,700 -1,050 Descending Winnipeg Center
Tue 11:15:27 PM 49.7833 -97.2500 73° East 160 184 2,800 -800 Descending Winnipeg Center
Tue 11:16:27 PM 49.8167 -97.2500 360° North 130 150 2,100 -700 Descending Winnipeg Center
Tue 11:17:27 PM 49.8500 -97.2500 360° North 120 138 1,400 -650 Descending Winnipeg Center
Tue 11:18:27 PM 49.8833 -97.2333 18° North 120 138 800 -600 Descending Winnipeg Center

Login

Don't have an account? Register now (free) for customized features, flight alerts, and more!